Time;durP1;ratioP1;P1;durP2;ratioP2;P2;SDS_P1;SDS_P2;PMS_P1;PMS_P2;Temp;Humidity;BMP_temperature;BMP_pressure;BME280_temperature;BME280_humidity;BME280_pressure;Samples;Min_cycle;Max_cycle;Signal;HPM_P1;HPM_P2
2022/08/20 00:00:47;;;;;;;;;;;;;;;24.62;53.77;101159.25;5136259;27;19923;-34
2022/08/20 00:03:14;;;;;;;;;;;;;;;24.61;53.91;101152.84;5137755;27;19993;-35
2022/08/20 00:05:42;;;;;;;;;;;;;;;24.63;53.94;101150.56;5135241;27;19968;-34
2022/08/20 00:08:08;;;;;;;;;;;;;;;24.62;53.90;101151.72;5143917;27;20357;-35
2022/08/20 00:10:35;;;;;;;;;;;;;;;24.63;53.90;101146.97;5138159;27;19923;-35
2022/08/20 00:13:00;;;;;;;;;;;;;;;24.62;53.77;101145.31;5120313;27;19963;-35
2022/08/20 00:15:28;;;;;;;;;;;;;;;24.61;53.86;101143.66;5115600;27;20293;-35
2022/08/20 00:17:53;;;;;;;;;;;;;;;24.62;53.80;101148.94;5118542;27;19931;-35
2022/08/20 00:20:20;;;;;;;;;;;;;;;24.60;53.94;101140.06;5138060;27;19923;-35
2022/08/20 00:22:46;;;;;;;;;;;;;;;24.61;53.96;101136.16;5123718;27;19959;-35
2022/08/20 00:25:12;;;;;;;;;;;;;;;24.62;53.92;101136.97;5140961;27;19945;-34
2022/08/20 00:27:37;;;;;;;;;;;;;;;24.61;53.93;101138.09;5137711;27;19923;-34
2022/08/20 00:30:05;;;;;;;;;;;;;;;24.61;53.74;101143.66;5136768;27;19928;-34
2022/08/20 00:32:31;;;;;;;;;;;;;;;24.60;53.90;101145.63;5123023;27;19973;-35
2022/08/20 00:34:57;;;;;;;;;;;;;;;24.61;53.81;101149.22;5138512;27;20342;-34
2022/08/20 00:37:22;;;;;;;;;;;;;;;24.60;53.90;101145.63;5142919;27;20365;-34
2022/08/20 00:39:48;;;;;;;;;;;;;;;24.60;53.79;101142.84;5148990;27;19924;-35
2022/08/20 00:42:13;;;;;;;;;;;;;;;24.61;53.85;101138.94;5141501;27;19932;-34
2022/08/20 00:44:46;;;;;;;;;;;;;;;24.61;53.94;101138.09;5140675;27;20345;-34
2022/08/20 00:47:11;;;;;;;;;;;;;;;24.60;53.92;101128.91;5139329;27;19959;-34
2022/08/20 00:49:37;;;;;;;;;;;;;;;24.60;53.91;101126.13;5145181;27;19931;-34
2022/08/20 00:52:08;;;;;;;;;;;;;;;24.59;53.86;101126.44;5147794;27;20337;-34
2022/08/20 00:54:42;;;;;;;;;;;;;;;24.59;53.78;101126.44;5141404;27;20424;-35
2022/08/20 00:57:10;;;;;;;;;;;;;;;24.60;53.85;101130.88;5121447;27;19974;-35
2022/08/20 00:59:38;;;;;;;;;;;;;;;24.59;53.91;101129.25;5121022;27;19963;-34
2022/08/20 01:02:04;;;;;;;;;;;;;;;24.59;53.79;101129.25;5140990;27;19978;-34
2022/08/20 01:04:32;;;;;;;;;;;;;;;24.60;53.88;101130.88;5140857;27;19923;-35
2022/08/20 01:06:58;;;;;;;;;;;;;;;24.59;53.85;101124.50;5126316;27;19966;-37
2022/08/20 01:09:23;;;;;;;;;;;;;;;24.58;53.82;101128.41;5142959;27;19927;-34
2022/08/20 01:12:09;;;;;;;;;;;;;;;24.58;53.77;101122.03;5112409;27;19934;-35
2022/08/20 01:17:16;;;;;;;;;;;;;;;24.59;53.78;101140.38;5180176;27;20013;-34
2022/08/20 01:20:01;;;;;;;;;;;;;;;24.60;53.91;101136.44;5174121;27;20380;-34
2022/08/20 01:25:19;;;;;;;;;;;;;;;24.59;53.90;101140.38;5163247;27;19989;-34
2022/08/20 01:27:45;;;;;;;;;;;;;;;24.58;53.84;101150.69;5159559;27;19989;-34
2022/08/20 01:30:11;;;;;;;;;;;;;;;24.58;53.83;101147.09;5175337;27;21084;-35
2022/08/20 01:32:37;;;;;;;;;;;;;;;24.58;53.90;101147.91;5171233;27;20002;-35
2022/08/20 01:35:03;;;;;;;;;;;;;;;24.57;53.91;101140.69;5176515;27;19934;-36
2022/08/20 01:37:28;;;;;;;;;;;;;;;24.57;53.85;101134.28;5172789;27;20021;-34
2022/08/20 01:39:57;;;;;;;;;;;;;;;24.59;53.87;101137.59;5177618;27;20006;-34
2022/08/20 01:42:25;;;;;;;;;;;;;;;24.57;53.85;101140.69;5177962;27;20407;-35
2022/08/20 01:44:51;;;;;;;;;;;;;;;24.58;53.76;101141.50;5153832;27;19963;-34
2022/08/20 01:47:22;;;;;;;;;;;;;;;24.58;53.86;101135.94;5152715;27;20360;-34
2022/08/20 01:49:50;;;;;;;;;;;;;;;24.57;53.78;101139.84;5137720;27;19966;-34
2022/08/20 01:52:33;;;;;;;;;;;;;;;24.57;53.88;101148.19;5158484;27;20018;-34
2022/08/20 01:54:58;;;;;;;;;;;;;;;24.57;53.87;101154.63;5133952;27;20325;-36
2022/08/20 01:57:25;;;;;;;;;;;;;;;24.57;53.85;101148.19;5155916;27;19929;-34
2022/08/20 01:59:51;;;;;;;;;;;;;;;24.57;53.71;101146.25;5154611;27;19974;-34
2022/08/20 02:02:16;;;;;;;;;;;;;;;24.57;53.73;101153.75;5133422;27;19957;-36
2022/08/20 02:04:42;;;;;;;;;;;;;;;24.56;53.83;101154.91;5148752;27;19951;-34
2022/08/20 02:07:11;;;;;;;;;;;;;;;24.56;53.92;101155.72;5135954;27;20388;-34
2022/08/20 02:09:38;;;;;;;;;;;;;;;24.55;53.81;101148.53;5153678;27;20380;-34
2022/08/20 02:12:05;;;;;;;;;;;;;;;24.56;53.79;101147.38;5135599;27;20396;-34
2022/08/20 02:14:31;;;;;;;;;;;;;;;24.56;53.78;101150.16;5133766;27;20022;-34
2022/08/20 02:16:57;;;;;;;;;;;;;;;24.56;53.84;101150.16;5132058;27;20026;-34
2022/08/20 02:19:39;;;;;;;;;;;;;;;24.56;53.72;101150.16;5156083;27;19970;-34
2022/08/20 02:22:08;;;;;;;;;;;;;;;24.56;53.86;101143.78;5143048;27;20015;-34
2022/08/20 02:24:34;;;;;;;;;;;;;;;24.56;53.89;101149.34;5153805;27;19962;-34
2022/08/20 02:26:59;;;;;;;;;;;;;;;24.56;53.79;101146.56;5155753;27;19954;-34
2022/08/20 02:29:25;;;;;;;;;;;;;;;24.56;53.90;101152.94;5123139;27;20006;-34
2022/08/20 02:31:51;;;;;;;;;;;;;;;24.56;53.90;101155.72;5144626;27;19923;-34
2022/08/20 02:34:36;;;;;;;;;;;;;;;24.56;53.79;101147.38;5128795;27;20012;-34
2022/08/20 02:37:03;;;;;;;;;;;;;;;24.55;53.88;101145.75;5125591;27;19927;-34
2022/08/20 02:39:28;;;;;;;;;;;;;;;24.55;53.94;101148.53;5142206;27;19969;-34
2022/08/20 02:41:54;;;;;;;;;;;;;;;24.54;53.79;101144.09;5135277;27;19931;-34
2022/08/20 02:44:20;;;;;;;;;;;;;;;24.55;53.86;101142.94;5126680;27;20608;-34
2022/08/20 02:46:48;;;;;;;;;;;;;;;24.54;53.79;101141.31;5144393;27;19946;-34
2022/08/20 02:49:13;;;;;;;;;;;;;;;24.55;53.79;101147.69;5141551;27;19978;-34
2022/08/20 02:51:39;;;;;;;;;;;;;;;24.54;53.80;101146.88;5141229;27;19931;-34
2022/08/20 02:54:04;;;;;;;;;;;;;;;24.55;53.86;101144.91;5139971;27;19924;-34
2022/08/20 02:56:30;;;;;;;;;;;;;;;24.55;53.94;101147.69;5140587;27;20319;-34
2022/08/20 02:58:55;;;;;;;;;;;;;;;24.55;53.90;101156.88;5142164;27;19923;-34
2022/08/20 03:01:21;;;;;;;;;;;;;;;24.53;53.86;101151.63;5138052;27;19938;-34
2022/08/20 03:03:47;;;;;;;;;;;;;;;24.53;53.82;101148.03;5125621;27;19980;-34
2022/08/20 03:06:13;;;;;;;;;;;;;;;24.53;53.95;101146.06;5139520;27;19923;-34
2022/08/20 03:08:39;;;;;;;;;;;;;;;24.55;53.91;101142.13;5133994;27;19923;-34
2022/08/20 03:11:04;;;;;;;;;;;;;;;24.53;53.87;101134.91;5144321;27;19954;-34
2022/08/20 03:13:30;;;;;;;;;;;;;;;24.53;53.82;101142.47;5141640;27;19923;-34
2022/08/20 03:15:57;;;;;;;;;;;;;;;24.53;53.79;101134.09;5139584;27;19931;-34
2022/08/20 03:18:25;;;;;;;;;;;;;;;24.52;53.88;101138.84;5144273;27;19934;-34
2022/08/20 03:20:50;;;;;;;;;;;;;;;24.52;53.85;101129.66;5148308;27;19966;-35
2022/08/20 03:23:18;;;;;;;;;;;;;;;24.53;53.74;101136.88;5141379;27;19946;-34
2022/08/20 03:25:44;;;;;;;;;;;;;;;24.53;53.84;101136.88;5135487;27;20022;-35
2022/08/20 03:28:09;;;;;;;;;;;;;;;24.53;53.93;101136.88;5137949;27;19980;-34
2022/08/20 03:30:35;;;;;;;;;;;;;;;24.52;53.84;101136.06;5121163;28;19931;-34
2022/08/20 03:33:01;;;;;;;;;;;;;;;24.51;53.84;101122.44;5124626;27;19934;-35
2022/08/20 03:35:27;;;;;;;;;;;;;;;24.52;53.82;101124.94;5119468;27;19923;-34
2022/08/20 03:37:53;;;;;;;;;;;;;;;24.52;53.84;101124.94;5138874;27;20315;-35
2022/08/20 03:40:22;;;;;;;;;;;;;;;24.52;53.76;101124.06;5134241;27;19969;-34
2022/08/20 03:42:47;;;;;;;;;;;;;;;24.51;53.79;101128.81;5143938;27;19967;-34
2022/08/20 03:45:13;;;;;;;;;;;;;;;24.51;53.82;101119.66;5141594;27;19942;-35
2022/08/20 03:47:45;;;;;;;;;;;;;;;24.52;53.90;101121.28;5138521;27;19930;-34
2022/08/20 03:50:11;;;;;;;;;;;;;;;24.51;53.84;101119.66;5146235;27;19931;-35
2022/08/20 03:52:48;;;;;;;;;;;;;;;24.51;53.75;101116.88;5141585;27;20209;-35
2022/08/20 03:55:14;;;;;;;;;;;;;;;24.51;53.92;101126.03;5122785;27;20345;-34
2022/08/20 03:57:44;;;;;;;;;;;;;;;24.50;53.79;101126.38;5137167;27;19923;-34
2022/08/20 04:00:12;;;;;;;;;;;;;;;24.50;53.81;101129.97;5117223;28;19959;-34
2022/08/20 04:02:37;;;;;;;;;;;;;;;24.51;53.78;101139.13;5140417;27;20024;-34
2022/08/20 04:05:03;;;;;;;;;;;;;;;24.50;53.85;101140.28;5138548;27;19928;-35
2022/08/20 04:07:28;;;;;;;;;;;;;;;24.50;53.79;101141.09;5135342;27;20267;-35
2022/08/20 04:09:54;;;;;;;;;;;;;;;24.49;53.68;101139.47;5145461;27;19923;-34
2022/08/20 04:12:21;;;;;;;;;;;;;;;24.50;53.84;101145.84;5125196;27;21129;-35
2022/08/20 04:14:47;;;;;;;;;;;;;;;24.50;53.83;101149.47;5119577;27;21275;-34
2022/08/20 04:17:13;;;;;;;;;;;;;;;24.50;53.89;101148.63;5136292;27;19923;-34
2022/08/20 04:19:39;;;;;;;;;;;;;;;24.51;53.88;101153.06;5143382;27;19950;-34
2022/08/20 04:22:05;;;;;;;;;;;;;;;24.50;53.77;101162.56;5121479;27;20285;-34
2022/08/20 04:24:30;;;;;;;;;;;;;;;24.49;53.83;101156.16;5122311;27;20356;-34
2022/08/20 04:26:58;;;;;;;;;;;;;;;24.50;53.89;101154.22;5134074;27;19923;-34
2022/08/20 04:29:24;;;;;;;;;;;;;;;24.50;53.95;101148.63;5137003;27;19931;-34
2022/08/20 04:31:57;;;;;;;;;;;;;;;24.49;53.87;101145.03;5142845;27;19928;-34
2022/08/20 04:34:23;;;;;;;;;;;;;;;24.50;53.92;101149.47;5140273;27;19931;-34
2022/08/20 04:36:48;;;;;;;;;;;;;;;24.50;54.01;101151.41;5138058;27;19923;-34
2022/08/20 04:39:14;;;;;;;;;;;;;;;24.49;53.94;101149.78;5136666;27;19927;-34
2022/08/20 04:41:40;;;;;;;;;;;;;;;24.50;54.16;101159.78;5128883;27;19924;-34
2022/08/20 04:44:05;;;;;;;;;;;;;;;24.49;53.85;101161.75;5117336;27;20075;-35
2022/08/20 04:46:31;;;;;;;;;;;;;;;24.50;53.82;101162.56;5119137;27;19983;-34
2022/08/20 04:48:57;;;;;;;;;;;;;;;24.49;53.85;101152.56;5139749;27;19974;-34
2022/08/20 04:51:23;;;;;;;;;;;;;;;24.49;53.90;101152.56;5138746;27;19928;-34
2022/08/20 04:53:51;;;;;;;;;;;;;;;24.48;53.85;101162.88;5135968;27;20009;-34
2022/08/20 04:56:22;;;;;;;;;;;;;;;24.49;53.91;101180.41;5120328;27;19923;-34
2022/08/20 04:58:50;;;;;;;;;;;;;;;24.49;53.91;101172.06;5118731;27;19977;-34
2022/08/20 05:01:15;;;;;;;;;;;;;;;24.47;53.81;101177.91;5123524;27;19974;-34
2022/08/20 05:03:41;;;;;;;;;;;;;;;24.49;53.90;101178.44;5138434;27;20015;-34
2022/08/20 05:06:07;;;;;;;;;;;;;;;24.48;53.78;101176.81;5117208;27;20613;-34
2022/08/20 05:08:34;;;;;;;;;;;;;;;24.48;53.89;101187.09;5137556;27;19959;-34
2022/08/20 05:11:00;;;;;;;;;;;;;;;24.48;53.92;101182.38;5114343;27;20000;-35
2022/08/20 05:13:46;;;;;;;;;;;;;;;24.49;53.75;101188.75;5110534;27;19977;-35
2022/08/20 05:16:11;;;;;;;;;;;;;;;24.46;53.84;101192.97;5132933;27;19923;-35
2022/08/20 05:18:37;;;;;;;;;;;;;;;24.47;53.77;101199.38;5117374;27;19923;-35
2022/08/20 05:21:04;;;;;;;;;;;;;;;24.47;53.85;101196.56;5137603;27;19927;-34
2022/08/20 05:23:30;;;;;;;;;;;;;;;24.47;53.93;101199.38;5143865;27;20400;-34
2022/08/20 05:25:56;;;;;;;;;;;;;;;24.48;53.79;101206.56;5132650;27;19974;-34
2022/08/20 05:28:23;;;;;;;;;;;;;;;24.47;53.80;101200.19;5141526;27;19930;-34
2022/08/20 05:30:49;;;;;;;;;;;;;;;24.46;53.84;101204.09;5121993;27;19923;-35
2022/08/20 05:33:16;;;;;;;;;;;;;;;24.47;53.84;101210.50;5138065;27;19974;-34
2022/08/20 05:35:42;;;;;;;;;;;;;;;24.47;53.79;101199.38;5135914;27;19930;-35
2022/08/20 05:38:10;;;;;;;;;;;;;;;24.47;53.87;101202.16;5134195;27;19927;-34
2022/08/20 05:40:36;;;;;;;;;;;;;;;24.47;53.89;101202.16;5118896;27;20010;-34
2022/08/20 05:43:03;;;;;;;;;;;;;;;24.46;53.73;101208.84;5137324;27;19928;-34
2022/08/20 05:45:29;;;;;;;;;;;;;;;24.46;53.88;101212.47;5119481;27;19970;-35
2022/08/20 05:47:54;;;;;;;;;;;;;;;24.45;53.86;101210.81;5140993;27;19969;-34
2022/08/20 05:50:21;;;;;;;;;;;;;;;24.45;53.80;101210.81;5133332;27;19993;-34
2022/08/20 05:52:48;;;;;;;;;;;;;;;24.47;53.91;101221.63;5131283;27;19986;-35
2022/08/20 05:55:14;;;;;;;;;;;;;;;24.46;53.82;101225.56;5115908;27;20374;-35
2022/08/20 05:57:40;;;;;;;;;;;;;;;24.45;53.90;101221.13;5134443;27;19931;-35
2022/08/20 06:00:07;;;;;;;;;;;;;;;24.46;53.87;101217.22;5139211;27;19923;-34
2022/08/20 06:05:18;;;;;;;;;;;;;;;24.45;53.81;101223.91;5119496;27;20425;-34
2022/08/20 06:07:44;;;;;;;;;;;;;;;24.45;53.83;101224.75;5143080;27;20034;-34
2022/08/20 06:10:10;;;;;;;;;;;;;;;24.45;53.87;101223.91;5139769;27;20026;-34
2022/08/20 06:12:36;;;;;;;;;;;;;;;24.44;53.86;101223.09;5142881;27;19939;-34
2022/08/20 06:15:02;;;;;;;;;;;;;;;24.44;53.84;101220.31;5124016;27;20364;-35
2022/08/20 06:17:28;;;;;;;;;;;;;;;24.45;53.96;101227.53;5138557;27;20025;-35
2022/08/20 06:20:06;;;;;;;;;;;;;;;24.45;53.83;101218.34;5146494;27;19927;-34
2022/08/20 06:22:32;;;;;;;;;;;;;;;24.45;53.87;101224.75;5126565;27;20342;-35
2022/08/20 06:24:58;;;;;;;;;;;;;;;24.45;53.74;101221.13;5137651;27;19954;-35
2022/08/20 06:27:24;;;;;;;;;;;;;;;24.44;53.84;101220.31;5143161;27;20395;-34
2022/08/20 06:29:50;;;;;;;;;;;;;;;24.45;53.82;101232.28;5122068;28;20404;-34
2022/08/20 06:32:16;;;;;;;;;;;;;;;24.44;53.78;101225.06;5122753;27;19931;-35
2022/08/20 06:34:41;;;;;;;;;;;;;;;24.44;53.93;101227.84;5142140;27;20372;-34
2022/08/20 06:37:18;;;;;;;;;;;;;;;24.45;53.96;101226.69;5143923;27;19942;-35
2022/08/20 06:39:44;;;;;;;;;;;;;;;24.44;53.74;101219.50;5141747;27;19973;-34
2022/08/20 06:42:09;;;;;;;;;;;;;;;24.44;53.94;101231.44;5142891;27;19923;-35
2022/08/20 06:44:35;;;;;;;;;;;;;;;24.43;53.72;101229.78;5121811;27;19975;-34
2022/08/20 06:47:02;;;;;;;;;;;;;;;24.43;53.90;101229.78;5137779;27;19934;-34
2022/08/20 06:49:28;;;;;;;;;;;;;;;24.44;53.81;101233.41;5119857;27;20386;-34
2022/08/20 06:52:01;;;;;;;;;;;;;;;24.43;53.72;101237.31;5140102;27;19923;-34
2022/08/20 06:54:26;;;;;;;;;;;;;;;24.43;53.95;101242.88;5137667;27;19963;-34
2022/08/20 06:56:54;;;;;;;;;;;;;;;24.43;53.79;101240.91;5136311;27;19967;-34
2022/08/20 06:59:20;;;;;;;;;;;;;;;24.43;53.76;101240.91;5142245;27;19931;-34
2022/08/20 07:01:45;;;;;;;;;;;;;;;24.43;53.83;101243.69;5119417;27;20276;-34
2022/08/20 07:04:11;;;;;;;;;;;;;;;24.42;53.70;101241.22;5140006;27;19923;-34
2022/08/20 07:06:36;;;;;;;;;;;;;;;24.42;53.76;101247.63;5142039;27;19923;-34
2022/08/20 07:09:02;;;;;;;;;;;;;;;24.43;53.80;101246.47;5121928;27;19934;-35
2022/08/20 07:11:28;;;;;;;;;;;;;;;24.41;53.94;101254.34;5147962;27;19923;-34
2022/08/20 07:13:55;;;;;;;;;;;;;;;24.42;53.66;101258.75;5144673;27;20636;-34
2022/08/20 07:16:20;;;;;;;;;;;;;;;24.42;53.82;101267.09;5120108;27;20026;-34
2022/08/20 07:18:46;;;;;;;;;;;;;;;24.42;53.81;101261.53;5143253;27;19924;-34
2022/08/20 07:21:12;;;;;;;;;;;;;;;24.42;53.80;101266.28;5147960;27;19923;-34
2022/08/20 07:23:37;;;;;;;;;;;;;;;24.42;53.82;101263.50;5144656;27;20403;-34
2022/08/20 07:26:03;;;;;;;;;;;;;;;24.42;54.08;101269.88;5143441;27;19931;-35
2022/08/20 07:28:29;;;;;;;;;;;;;;;24.42;53.82;101272.69;5139122;27;19942;-34
2022/08/20 07:33:41;;;;;;;;;;;;;;;24.41;53.74;101273.81;5123676;27;19978;-34
2022/08/20 07:36:06;;;;;;;;;;;;;;;24.41;53.83;101279.38;5137082;27;19993;-34
2022/08/20 07:38:32;;;;;;;;;;;;;;;24.41;53.85;101281.34;5137864;27;19927;-34
2022/08/20 07:40:59;;;;;;;;;;;;;;;24.40;53.86;101283.31;5127246;27;20334;-35
2022/08/20 07:43:26;;;;;;;;;;;;;;;24.41;53.86;101286.91;5121933;27;19990;-34
2022/08/20 07:45:55;;;;;;;;;;;;;;;24.40;53.79;101294.44;5124950;27;20013;-34
2022/08/20 07:48:21;;;;;;;;;;;;;;;24.40;53.71;101294.44;5118818;27;19958;-34
2022/08/20 07:50:58;;;;;;;;;;;;;;;24.40;53.82;101294.44;5138018;27;19946;-36
2022/08/20 07:53:24;;;;;;;;;;;;;;;24.42;54.01;101294.94;5141208;27;19971;-35
2022/08/20 07:55:49;;;;;;;;;;;;;;;24.40;53.80;101293.63;5140588;27;19930;-34
2022/08/20 07:58:24;;;;;;;;;;;;;;;24.41;53.79;101295.25;5135560;27;19931;-34
2022/08/20 08:00:58;;;;;;;;;;;;;;;24.40;53.86;101299.19;5141608;27;20038;-34
2022/08/20 08:03:25;;;;;;;;;;;;;;;24.40;53.82;101304.75;5135807;27;20417;-34
2022/08/20 08:06:10;;;;;;;;;;;;;;;24.40;53.77;101308.38;5121613;27;19980;-35
2022/08/20 08:08:39;;;;;;;;;;;;;;;24.39;53.87;101308.66;5133696;27;19935;-34
2022/08/20 08:11:05;;;;;;;;;;;;;;;24.40;53.86;101308.38;5136895;27;19935;-36
2022/08/20 08:13:32;;;;;;;;;;;;;;;24.39;53.87;101309.47;5136888;27;19973;-34
2022/08/20 08:16:00;;;;;;;;;;;;;;;24.40;53.87;101305.56;5119235;27;20002;-37
2022/08/20 08:18:26;;;;;;;;;;;;;;;24.39;53.77;101300.28;5136418;27;20429;-35
2022/08/20 08:20:57;;;;;;;;;;;;;;;24.39;53.78;101306.69;5139986;27;19930;-35
2022/08/20 08:23:22;;;;;;;;;;;;;;;24.39;53.78;101301.13;5139320;27;19929;-34
2022/08/20 08:25:58;;;;;;;;;;;;;;;24.40;53.88;101301.97;5120607;27;19931;-34
2022/08/20 08:28:24;;;;;;;;;;;;;;;24.39;53.82;101312.25;5138637;27;19970;-34
2022/08/20 08:30:49;;;;;;;;;;;;;;;24.39;53.78;101306.69;5125322;27;19931;-34
2022/08/20 08:33:31;;;;;;;;;;;;;;;24.39;53.75;101306.69;5116974;27;19924;-34
2022/08/20 08:35:58;;;;;;;;;;;;;;;24.39;53.90;101308.66;5135790;27;19966;-34
2022/08/20 08:38:24;;;;;;;;;;;;;;;24.39;53.87;101311.44;5119126;27;20002;-34
2022/08/20 08:40:52;;;;;;;;;;;;;;;24.39;53.84;101314.22;5140050;27;19923;-35
2022/08/20 08:43:26;;;;;;;;;;;;;;;24.38;53.83;101315.34;5144501;27;19931;-34
2022/08/20 08:45:58;;;;;;;;;;;;;;;24.39;53.87;101320.59;5119295;27;19931;-34
2022/08/20 08:48:27;;;;;;;;;;;;;;;24.38;53.93;101321.75;5143545;27;20006;-35
2022/08/20 08:50:56;;;;;;;;;;;;;;;24.38;53.91;101320.91;5138885;27;19966;-34
2022/08/20 08:53:24;;;;;;;;;;;;;;;24.38;53.86;101324.53;5136211;27;19927;-35
2022/08/20 08:55:50;;;;;;;;;;;;;;;24.38;53.78;101330.09;5135905;27;20006;-35
2022/08/20 08:58:15;;;;;;;;;;;;;;;24.38;53.92;101324.53;5124100;27;19930;-34
2022/08/20 09:00:43;;;;;;;;;;;;;;;24.38;53.85;101330.09;5145826;27;20006;-34
2022/08/20 09:03:30;;;;;;;;;;;;;;;24.39;53.82;101340.09;5134861;27;20030;-34
2022/08/20 09:05:58;;;;;;;;;;;;;;;24.38;53.81;101338.44;5120606;27;20038;-34
2022/08/20 09:08:26;;;;;;;;;;;;;;;24.39;53.94;101333.69;5135597;27;19982;-35
2022/08/20 09:10:51;;;;;;;;;;;;;;;24.38;53.93;101344.00;5136522;27;20422;-34
2022/08/20 09:13:18;;;;;;;;;;;;;;;24.38;53.85;101344.00;5138197;27;19923;-35
2022/08/20 09:15:43;;;;;;;;;;;;;;;24.38;53.87;101345.97;5137058;27;20416;-34
2022/08/20 09:18:09;;;;;;;;;;;;;;;24.38;53.86;101340.41;5136633;27;19929;-35
2022/08/20 09:20:34;;;;;;;;;;;;;;;24.38;53.95;101340.41;5141651;27;20284;-35
2022/08/20 09:23:00;;;;;;;;;;;;;;;24.37;54.07;101344.31;5124578;27;19923;-34
2022/08/20 09:25:25;;;;;;;;;;;;;;;24.38;54.01;101351.53;5138089;27;19930;-35
2022/08/20 09:27:51;;;;;;;;;;;;;;;24.37;53.87;101353.50;5143508;27;19965;-34
2022/08/20 09:30:16;;;;;;;;;;;;;;;24.38;53.91;101354.31;5119352;27;19923;-34
2022/08/20 09:32:43;;;;;;;;;;;;;;;24.37;53.93;101353.50;5123507;27;19923;-35
2022/08/20 09:35:09;;;;;;;;;;;;;;;24.38;53.89;101354.31;5130805;27;19996;-34
2022/08/20 09:37:35;;;;;;;;;;;;;;;24.39;53.93;101361.53;5139048;27;19934;-34
2022/08/20 09:40:03;;;;;;;;;;;;;;;24.37;53.92;101353.50;5145108;27;20352;-35
2022/08/20 09:42:31;;;;;;;;;;;;;;;24.38;53.83;101363.50;5124627;27;19923;-35
2022/08/20 09:44:57;;;;;;;;;;;;;;;24.37;53.92;101358.22;5142871;27;20002;-34
2022/08/20 09:47:23;;;;;;;;;;;;;;;24.38;54.11;101359.91;5140393;27;19924;-34
2022/08/20 09:49:48;;;;;;;;;;;;;;;24.36;53.86;101362.13;5145304;27;19930;-35
2022/08/20 09:52:34;;;;;;;;;;;;;;;24.37;53.89;101363.78;5122838;27;19924;-35
2022/08/20 09:55:08;;;;;;;;;;;;;;;24.37;53.88;101361.00;5128935;27;19927;-36
2022/08/20 09:57:39;;;;;;;;;;;;;;;24.37;53.86;101359.06;5146844;27;20578;-34
2022/08/20 10:00:07;;;;;;;;;;;;;;;24.37;54.01;101358.22;5142886;27;19938;-34
2022/08/20 10:02:33;;;;;;;;;;;;;;;24.37;53.88;101358.22;5141527;27;19980;-34
2022/08/20 10:04:58;;;;;;;;;;;;;;;24.37;53.94;101363.78;5122066;27;20433;-35
2022/08/20 10:07:24;;;;;;;;;;;;;;;24.35;53.91;101366.84;5136186;27;19931;-34
2022/08/20 10:09:50;;;;;;;;;;;;;;;24.36;53.86;101359.34;5140931;27;20265;-34
2022/08/20 10:12:15;;;;;;;;;;;;;;;24.35;53.89;101364.06;5140445;27;21380;-36
2022/08/20 10:14:41;;;;;;;;;;;;;;;24.35;53.94;101364.06;5139986;27;19923;-34
2022/08/20 10:17:06;;;;;;;;;;;;;;;24.36;53.88;101364.94;5124823;27;19927;-35
2022/08/20 10:19:32;;;;;;;;;;;;;;;24.36;53.96;101368.53;5140283;27;20297;-34
2022/08/20 10:21:57;;;;;;;;;;;;;;;24.36;53.78;101364.94;5144897;27;19927;-35
2022/08/20 10:24:23;;;;;;;;;;;;;;;24.36;53.92;101367.72;5140182;27;19948;-36
2022/08/20 10:26:49;;;;;;;;;;;;;;;24.36;53.87;101367.72;5117851;28;20384;-34
2022/08/20 10:29:14;;;;;;;;;;;;;;;24.36;53.83;101370.50;5138382;27;19923;-34
2022/08/20 10:31:40;;;;;;;;;;;;;;;24.34;53.96;101365.22;5138301;27;19932;-35
2022/08/20 10:34:06;;;;;;;;;;;;;;;24.35;53.95;101369.63;5137491;27;19939;-34
2022/08/20 10:36:31;;;;;;;;;;;;;;;24.35;53.89;101369.63;5136300;27;20581;-38
2022/08/20 10:38:57;;;;;;;;;;;;;;;24.35;53.88;101364.06;5144522;27;19923;-34
2022/08/20 10:41:22;;;;;;;;;;;;;;;24.36;53.92;101378.84;5125709;27;19945;-34
2022/08/20 10:43:48;;;;;;;;;;;;;;;24.35;53.91;101377.16;5125260;27;19923;-35
2022/08/20 10:46:13;;;;;;;;;;;;;;;24.34;54.00;101379.13;5134859;27;19976;-34
2022/08/20 10:48:39;;;;;;;;;;;;;;;24.35;53.90;101368.81;5145125;27;19923;-34
2022/08/20 10:51:04;;;;;;;;;;;;;;;24.36;53.79;101370.50;5146456;27;19931;-35
2022/08/20 10:53:30;;;;;;;;;;;;;;;24.34;53.85;101375.53;5139623;27;20048;-34
2022/08/20 10:55:56;;;;;;;;;;;;;;;24.35;54.00;101379.94;5140910;27;19935;-34
2022/08/20 10:58:22;;;;;;;;;;;;;;;24.34;53.82;101381.91;5124071;27;19970;-35
2022/08/20 11:00:49;;;;;;;;;;;;;;;24.34;53.96;101386.66;5122933;28;19932;-35
2022/08/20 11:03:15;;;;;;;;;;;;;;;24.34;53.93;101383.88;5142644;27;19931;-34
2022/08/20 11:05:40;;;;;;;;;;;;;;;24.35;53.88;101380.78;5119659;27;20429;-35
2022/08/20 11:08:06;;;;;;;;;;;;;;;24.34;53.96;101384.69;5145056;27;19929;-35
2022/08/20 11:10:32;;;;;;;;;;;;;;;24.34;53.89;101379.13;5141691;27;19931;-35
2022/08/20 11:12:58;;;;;;;;;;;;;;;24.34;53.94;101376.34;5120742;27;19923;-34
2022/08/20 11:15:24;;;;;;;;;;;;;;;24.35;53.90;101379.94;5139807;27;19935;-34
2022/08/20 11:17:49;;;;;;;;;;;;;;;24.34;53.91;101379.13;5118691;27;19942;-35
2022/08/20 11:20:16;;;;;;;;;;;;;;;24.34;54.00;101376.34;5138713;27;19934;-34
2022/08/20 11:22:42;;;;;;;;;;;;;;;24.35;53.90;101372.41;5119206;27;20014;-34
2022/08/20 11:25:08;;;;;;;;;;;;;;;24.34;53.92;101373.56;5142374;27;19924;-34
2022/08/20 11:27:35;;;;;;;;;;;;;;;24.34;53.89;101381.91;5137831;27;19982;-35
2022/08/20 11:30:01;;;;;;;;;;;;;;;24.34;53.94;101384.69;5140500;27;19982;-34
2022/08/20 11:32:27;;;;;;;;;;;;;;;24.33;53.97;101377.47;5142728;27;19930;-34
2022/08/20 11:34:52;;;;;;;;;;;;;;;24.34;53.92;101379.13;5117691;27;19937;-34
2022/08/20 11:37:18;;;;;;;;;;;;;;;24.34;53.86;101370.78;5138594;27;19931;-34
2022/08/20 11:39:44;;;;;;;;;;;;;;;24.33;53.85;101371.91;5139412;27;20306;-34
2022/08/20 11:42:10;;;;;;;;;;;;;;;24.34;53.92;101367.16;5139152;27;20354;-35
2022/08/20 11:44:35;;;;;;;;;;;;;;;24.34;53.95;101378.31;5138720;27;19927;-34
2022/08/20 11:47:02;;;;;;;;;;;;;;;24.34;53.96;101367.16;5140552;27;20328;-36
2022/08/20 11:49:29;;;;;;;;;;;;;;;24.34;53.98;101381.91;5137077;27;20364;-34
2022/08/20 11:51:55;;;;;;;;;;;;;;;24.33;53.93;101380.25;5142697;27;20013;-35
2022/08/20 11:54:20;;;;;;;;;;;;;;;24.34;53.97;101384.69;5141591;27;19980;-34
2022/08/20 11:56:46;;;;;;;;;;;;;;;24.34;54.00;101375.53;5134744;27;19924;-34
2022/08/20 11:59:12;;;;;;;;;;;;;;;24.32;53.94;101375.84;5139052;27;19931;-35
2022/08/20 12:01:37;;;;;;;;;;;;;;;24.33;53.93;101383.06;5141963;27;19923;-34
2022/08/20 12:04:03;;;;;;;;;;;;;;;24.32;53.98;101367.50;5143340;27;19931;-35
2022/08/20 12:06:28;;;;;;;;;;;;;;;24.33;53.92;101379.44;5139537;27;20396;-34
2022/08/20 12:08:55;;;;;;;;;;;;;;;24.33;54.04;101376.66;5140841;27;20311;-34
2022/08/20 12:11:20;;;;;;;;;;;;;;;24.33;54.00;101374.69;5139028;27;19991;-34
2022/08/20 12:13:46;;;;;;;;;;;;;;;24.33;54.01;101373.88;5137414;27;19923;-34
2022/08/20 12:16:15;;;;;;;;;;;;;;;24.33;53.90;101379.44;5117723;27;20025;-34
2022/08/20 12:18:40;;;;;;;;;;;;;;;24.32;53.92;101375.84;5140938;27;19981;-34
2022/08/20 12:21:06;;;;;;;;;;;;;;;24.33;53.94;101374.69;5138775;27;20350;-34
2022/08/20 12:23:31;;;;;;;;;;;;;;;24.32;53.94;101375.84;5138096;27;19923;-34
2022/08/20 12:26:01;;;;;;;;;;;;;;;24.33;53.99;101366.34;5137006;27;19976;-35
2022/08/20 12:28:27;;;;;;;;;;;;;;;24.33;53.85;101374.69;5138564;27;19983;-35
2022/08/20 12:30:52;;;;;;;;;;;;;;;24.32;53.91;101359.13;5143618;27;19931;-34
2022/08/20 12:33:18;;;;;;;;;;;;;;;24.33;53.94;101360.78;5144251;27;19923;-35
2022/08/20 12:35:43;;;;;;;;;;;;;;;24.33;53.93;101365.53;5139459;27;20361;-35
2022/08/20 12:38:09;;;;;;;;;;;;;;;24.33;54.13;101369.13;5139350;27;19979;-34
2022/08/20 12:40:35;;;;;;;;;;;;;;;24.32;53.96;101359.13;5145059;27;19930;-34
2022/08/20 12:43:01;;;;;;;;;;;;;;;24.32;54.00;101363.88;5119542;27;19975;-35
2022/08/20 12:45:26;;;;;;;;;;;;;;;24.32;53.93;101361.91;5137268;27;19974;-35